• Join FlightAware (Why Join?)
  • Login
  • US Flag 
05:12AM EDT


 

Airport Tracker/Info


-or-


 

Live Flight TrackerFlight Track Log ✈ AFL150 ✈ 05-May-2014 ✈ UUEE / SVO - MUHA / HAV

Flight Track Log - Related Links

Times and Time Zones

All times are in EDT time to prevent confusion due to time zone crossing. See the AFL150 flight status page for this flight to view local times or setup timezone preferences in your user account.

Time Position Orientation Groundspeed Altitude Reporting Facility
EDT Latitude Longitude Course Direction KTS MPH feet Rate Location/Type
03:45PM 58.8667 -56.1500 255° West 470 541 36,000  Level Gander Center
03:46PM 58.8333 -56.3833 255° West 480 552 36,000  Level Gander Center
03:47PM 58.7833 -56.6167 248° West 470 541 36,000  Level Gander Center
03:48PM 58.7333 -56.8500 248° West 470 541 36,000  Level Gander Center
03:49PM 58.6833 -57.0833 248° West 480 552 36,000  Level Gander Center
03:50PM 58.6500 -57.2500 249° West 480 552 36,000  Level Gander Center
03:51PM 58.6000 -57.4833 248° West 470 541 36,000  Level Gander Center
03:52PM 58.5333 -57.7000 240° Southwest 470 541 36,000  Level Gander Center
03:53PM 58.5000 -57.9333 255° West 470 541 36,000  Level Gander Center
03:54PM 58.4500 -58.1667 248° West 470 541 36,000  Level Gander Center
03:55PM 58.3833 -58.3833 240° Southwest 470 541 36,000  Level Gander Center
03:56PM 58.3500 -58.6167 255° West 470 541 36,000  Level Gander Center
03:57PM 58.2833 -58.8333 240° Southwest 470 541 36,000  Level Gander Center
03:58PM 58.2333 -59.0667 248° West 470 541 36,000  Level Gander Center
03:59PM 58.1667 -59.2833 240° Southwest 470 541 36,000  Level Gander Center
04:00PM 58.1167 -59.5167 248° West 470 541 36,000  Level Gander Center
04:01PM 58.0667 -59.7333 247° West 470 541 36,000  Level Gander Center
04:02PM 57.9833 -59.9333 232° Southwest 470 541 36,000  Level Gander Center
04:03PM 57.8667 -60.0833 214° Southwest 470 541 36,000  Level Gander Center
04:04PM 57.7667 -60.1833 208° Southwest 470 541 36,000  Level Gander Center
04:05PM 57.6500 -60.3167 211° Southwest 470 541 36,000  Level Gander Center
04:06PM 57.5333 -60.4167 205° Southwest 470 541 36,000  Level Gander Center
04:07PM 57.4167 -60.5000 201° Southwest 470 541 36,000  Level Gander Center
04:08PM 57.3000 -60.6333 212° Southwest 460 529 36,000  Level Gander Center
04:09PM 57.1667 -60.7333 202° Southwest 470 541 36,000  Level Gander Center
04:10PM 57.0500 -60.8500 209° Southwest 470 541 36,000  Level Gander Center
04:11PM 56.9333 -60.9833 212° Southwest 460 529 36,000  Level Gander Center
04:12PM 56.8333 -61.0333 195° South 470 541 36,000  Level Gander Center
04:13PM 56.7000 -61.1667 209° Southwest 480 552 36,100 300 Climbing Gander Center
04:14PM 56.6000 -61.2833 213° Southwest 470 541 36,600 480 Climbing Gander Center
04:15PM 56.4667 -61.3667 199° South 470 541 37,100 480 Climbing Gander Center
04:16PM 56.3500 -61.4667 205° Southwest 470 541 37,600 420 Climbing Gander Center
04:17PM 56.2500 -61.5833 213° Southwest 470 541 38,000 180 Climbing Gander Center
04:18PM 56.1167 -61.6667 199° South 480 552 38,000  Level Gander Center
04:19PM 56.0000 -61.7833 209° Southwest 470 541 38,000  Level Gander Center
04:20PM 55.8833 -61.8833 206° Southwest 470 541 38,000  Level Gander Center
04:21PM 55.7667 -62.0000 209° Southwest 470 541 38,000  Level Gander Center
04:22PM 55.6500 -62.0833 202° Southwest 470 541 38,000  Level Gander Center
04:23PM 55.5333 -62.2000 210° Southwest 480 552 38,000  Level Gander Center
04:24PM 55.4000 -62.2833 200° South 480 552 38,000  Level Gander Center
04:25PM 55.2833 -62.4000 210° Southwest 480 552 38,000  Level Gander Center
04:26PM 55.1667 -62.4833 202° Southwest 480 552 38,000  Level Gander Center
04:27PM 55.0500 -62.6000 210° Southwest 480 552 38,000  Level Gander Center
04:28PM 54.9333 -62.6833 202° Southwest 480 552 38,000  Level Gander Center
04:29PM 54.7833 -62.7833 201° Southwest 480 552 38,000  Level Gander Center
04:30PM 54.6833 -62.8667 206° Southwest 480 552 38,000  Level Gander Center
04:31PM 54.5500 -62.9833 207° Southwest 480 552 38,000  Level Gander Center
04:32PM 54.4333 -63.0667 203° Southwest 480 552 38,000  Level Gander Center
04:33PM 54.3167 -63.1667 207° Southwest 480 552 38,000  Level Gander Center
04:34PM 54.2000 -63.2500 203° Southwest 480 552 38,000  Level Gander Center
04:35PM 54.0833 -63.3667 210° Southwest 480 552 38,000  Level Gander Center
04:36PM 53.9000 -63.5000 203° Southwest 480 552 38,000  Level Gander Center
04:37PM 53.7833 -63.5667 199° South 490 564 38,000  Level Gander Center
04:38PM 53.6500 -63.6833 207° Southwest 480 552 38,000  Level Gander Center
04:39PM 53.5333 -63.7500 199° South 490 564 38,000  Level Gander Center
04:40PM 53.4000 -63.8667 208° Southwest 490 564 38,000  Level Gander Center
04:41PM 53.2833 -63.9333 199° South 480 552 38,000  Level Gander Center
04:42PM 53.1500 -64.0500 208° Southwest 490 564 38,000  Level Gander Center
04:43PM 53.0333 -64.1500 207° Southwest 480 552 38,000  Level Gander Center
04:44PM 52.9167 -64.2167 199° South 480 552 38,000  Level Gander Center
04:45PM 52.7833 -64.3167 204° Southwest 490 564 38,000  Level Gander Center
04:46PM 52.6667 -64.4000 203° Southwest 490 564 38,000  Level Gander Center
04:47PM 52.5333 -64.5000 205° Southwest 480 552 38,000  Level Gander Center
04:48PM 52.4167 -64.5667 199° South 480 552 38,000  Level Gander Center
04:49PM 52.3000 -64.6667 208° Southwest 480 552 38,000  Level Gander Center
04:51PM 52.0333 -64.8333 201° Southwest 490 564 38,000  Level Moncton Center
04:52PM 51.9167 -64.9333 208° Southwest 480 552 38,000  Level Moncton Center
04:53PM 51.7833 -65.0167 201° Southwest 490 564 38,000  Level Moncton Center
04:54PM 51.6667 -65.1000 204° Southwest 490 564 38,000  Level Moncton Center
04:55PM 51.5333 -65.1833 201° Southwest 490 564 38,000  Level Moncton Center
04:56PM 51.4167 -65.2833 208° Southwest 490 564 38,000  Level Moncton Center
04:57PM 51.2833 -65.3500 197° South 490 564 38,000  Level Gander Center
04:58PM 51.1667 -65.4500 208° Southwest 490 564 38,000  Level Gander Center
04:59PM 51.0333 -65.5333 201° Southwest 490 564 38,000  Level Moncton Center
05:00PM 50.8833 -65.6167 199° South 490 564 38,000  Level Moncton Center
05:01PM 50.7667 -65.7000 204° Southwest 490 564 38,000  Level Moncton Center
05:02PM 50.6333 -65.7667 198° South 490 564 38,000  Level Moncton Center
05:03PM 50.5167 -65.8500 204° Southwest 490 564 38,000  Level Moncton Center
05:04PM 50.3833 -65.9500 206° Southwest 490 564 38,000  Level Moncton Center
05:06PM 50.1333 -66.1000 201° Southwest 490 564 38,000  Level Moncton Center
05:07PM 50.0167 -66.2000 209° Southwest 490 564 38,000  Level Moncton Center
05:08PM 49.8833 -66.2667 198° South 490 564 38,000  Level Moncton Center
05:09PM 49.7500 -66.3333 198° South 500 575 38,000  Level Moncton Center
05:10PM 49.6167 -66.4167 202° Southwest 500 575 38,000  Level Moncton Center
05:11PM 49.4833 -66.5167 206° Southwest 500 575 38,000  Level Moncton Center
05:12PM 49.3667 -66.5833 200° South 490 564 38,000  Level Moncton Center
05:13PM 49.2333 -66.6500 198° South 490 564 38,000  Level Moncton Center
05:14PM 49.1000 -66.7500 206° Southwest 500 575 38,000  Level Moncton Center
05:15PM 48.9833 -66.8167 201° Southwest 500 575 38,000  Level Moncton Center
05:16PM 48.8500 -66.8833 198° South 500 575 38,000  Level Moncton Center
05:17PM 48.7333 -66.9667 205° Southwest 500 575 38,000  Level Moncton Center
05:23PM 48.0151 -67.3957 201° Southwest 494 568 38,000  Level FlightAware ADS-B (CYSG)
05:24PM 47.8829 -67.4717 201° Southwest 494 568 38,000  Level FlightAware ADS-B (CYSG)
05:25PM 47.7645 -67.5396 201° Southwest 493 567 38,000  Level FlightAware ADS-B (CYSG)
05:26PM 47.5578 -67.6572 201° Southwest 493 567 38,000  Level FlightAware ADS-B (CYSG)
05:27PM 47.4831 -67.6997 201° Southwest 493 567 38,000  Level FlightAware ADS-B (CYSG)
05:27PM 47.3984 -67.7475 201° Southwest 493 567 38,000  Level FlightAware ADS-B (CYSG)
05:28PM 47.3253 -67.7887 201° Southwest 494 568 38,000  Level FlightAware ADS-B (CYSG)
05:30PM 47.0456 -67.9447 201° Southwest 497 572 38,000  Level FlightAware ADS-B (CYSG)
05:31PM 46.9642 -67.9899 201° Southwest 496 571 38,000  Level FlightAware ADS-B (CYSG)
05:32PM 46.8182 -68.1095 211° Southwest 491 565 38,000  Level FlightAware ADS-B (CYSG)
05:33PM 46.7380 -68.1800 211° Southwest 490 564 38,000  Level FlightAware ADS-B (KBGR)
05:33PM 46.6793 -68.2309 211° Southwest 489 563 38,000  Level FlightAware ADS-B (KBGR)
05:34PM 46.5782 -68.3186 211° Southwest 490 564 38,000  Level FlightAware ADS-B (CYSG)
05:35PM 46.5196 -68.3692 211° Southwest 490 564 38,000  Level FlightAware ADS-B (CYSG)
05:35PM 46.4498 -68.4294 211° Southwest 487 560 38,000  Level FlightAware ADS-B (CYSG)
05:36PM 46.3860 -68.4844 211° Southwest 485 558 38,000  Level FlightAware ADS-B (CYSG)
05:36PM 46.3121 -68.5475 211° Southwest 485 558 38,000  Level FlightAware ADS-B (CYSG)
05:37PM 46.2554 -68.5960 211° Southwest 485 558 38,000  Level FlightAware ADS-B (CYSG)
05:38PM 46.1583 -68.6786 211° Southwest 486 559 38,000  Level FlightAware ADS-B (KBGR)
05:38PM 46.0944 -68.7327 211° Southwest 486 559 38,000  Level FlightAware ADS-B (CYSG)
05:39PM 46.0142 -68.8005 211° Southwest 487 560 38,000  Level FlightAware ADS-B (KBGR)
05:40PM 45.9546 -68.8508 211° Southwest 486 559 38,000  Level FlightAware ADS-B (CYSG)
05:40PM 45.8972 -68.8991 210° Southwest 487 560 38,000  Level FlightAware ADS-B (CYSG)
05:41PM 45.8455 -68.9425 210° Southwest 487 560 38,000  Level FlightAware ADS-B (KBGR)
05:41PM 45.7840 -68.9941 210° Southwest 487 560 38,000  Level FlightAware ADS-B (KBGR)
05:42PM 45.7192 -69.0483 210° Southwest 487 560 38,000  Level FlightAware ADS-B (CYSG)
05:42PM 45.6584 -69.0989 210° Southwest 487 560 38,000  Level FlightAware ADS-B (CYSG)
05:43PM 45.5978 -69.1493 210° Southwest 488 562 38,000  Level FlightAware ADS-B (CYSG)
05:43PM 45.5221 -69.2119 210° Southwest 488 562 38,000  Level FlightAware ADS-B (CYSG)
05:44PM 45.4571 -69.2655 210° Southwest 490 564 38,000  Level FlightAware ADS-B (KBGR)
05:44PM 45.4002 -69.3124 210° Southwest 491 565 38,000  Level FlightAware ADS-B (KBGR)
05:45PM 45.3416 -69.3605 210° Southwest 490 564 38,000  Level FlightAware ADS-B (KBGR)
05:45PM 45.2824 -69.4091 210° Southwest 489 563 38,000  Level FlightAware ADS-B (CYQI)
05:46PM 45.2031 -69.4739 210° Southwest 490 564 38,000  Level FlightAware ADS-B (CYSG)
05:46PM 45.1432 -69.5228 210° Southwest 491 565 38,000  Level FlightAware ADS-B (CYSG)
05:47PM 45.0750 -69.5783 210° Southwest 488 562 38,000  Level FlightAware ADS-B (KBGR)
05:48PM 45.0046 -69.6355 210° Southwest 487 560 38,000  Level FlightAware ADS-B (CYSG)
05:48PM 44.9318 -69.6943 210° Southwest 487 560 38,000  Level FlightAware ADS-B (KBGR)
05:49PM 44.8710 -69.7433 210° Southwest 487 560 38,000  Level FlightAware ADS-B (KBGR)
05:49PM 44.8000 -69.8004 210° Southwest 488 562 38,000  Level FlightAware ADS-B (CYSG)
05:50PM 44.7259 -69.8596 210° Southwest 489 563 38,000  Level FlightAware ADS-B (CYSG)
05:51PM 44.6663 -69.9072 210° Southwest 490 564 38,000  Level FlightAware ADS-B (CYSG)
05:51PM 44.6065 -69.9550 210° Southwest 490 564 38,000  Level FlightAware ADS-B (KBGR)
05:52PM 44.5432 -70.0055 210° Southwest 489 563 38,000  Level FlightAware ADS-B (CYSG)
05:52PM 44.4590 -70.0723 210° Southwest 487 560 38,000  Level FlightAware ADS-B (KBGR)
05:53PM 44.3997 -70.1192 210° Southwest 486 559 38,000  Level FlightAware ADS-B (KBGR)
05:53PM 44.3555 -70.1541 210° Southwest 484 557 38,000  Level FlightAware ADS-B (CYQI)
05:54PM 44.2204 -70.2604 210° Southwest 483 556 38,000  Level FlightAware ADS-B (CYSG)
05:55PM 44.1794 -70.2926 209° Southwest 482 555 38,000  Level FlightAware ADS-B (CYSG)
05:56PM 44.0544 -70.3903 209° Southwest 482 555 38,000  Level FlightAware ADS-B (KASH)
05:56PM 43.9955 -70.4359 209° Southwest 483 556 38,000  Level FlightAware ADS-B (KASH)
05:57PM 43.9209 -70.4940 209° Southwest 483 556 38,000  Level FlightAware ADS-B (KBOS)
05:57PM 43.8665 -70.5362 209° Southwest 482 555 38,000  Level FlightAware ADS-B (KBOS)
05:58PM 43.7981 -70.5891 209° Southwest 482 555 38,000  Level FlightAware ADS-B (KBOS)
05:59PM 43.7207 -70.6486 209° Southwest 480 552 38,000  Level FlightAware ADS-B (KBOS)
05:59PM 43.6566 -70.6977 209° Southwest 479 551 38,000  Level FlightAware ADS-B (KBOS)
06:00PM 43.5917 -70.7475 209° Southwest 479 551 38,000  Level FlightAware ADS-B (KBOS)
06:00PM 43.5285 -70.7960 209° Southwest 481 554 38,000  Level FlightAware ADS-B (KBOS)
06:01PM 43.4930 -70.8230 210° Southwest 484 557 38,000  Level FlightAware ADS-B
06:01PM 43.4401 -70.8636 209° Southwest 482 555 38,000  Level FlightAware ADS-B (KASH)
06:01PM 43.4190 -70.8800 210° Southwest 484 557 38,000  Level FlightAware ADS-B
06:02PM 43.3795 -70.9096 209° Southwest 482 555 38,000  Level FlightAware ADS-B (KASH)
06:02PM 43.3101 -70.9623 209° Southwest 481 554 38,000  Level FlightAware ADS-B (KBOS)
06:03PM 43.2503 -71.0074 209° Southwest 481 554 38,000  Level FlightAware ADS-B (KBOS)
06:03PM 43.1900 -71.0528 209° Southwest 483 556 38,000  Level FlightAware ADS-B (KBOS)
06:04PM 43.1337 -71.0953 209° Southwest 484 557 38,000  Level FlightAware ADS-B (KBOS)
06:04PM 43.0621 -71.1492 209° Southwest 475 547 38,000  Level FlightAware ADS-B (KASH)
06:05PM 42.9953 -71.1993 209° Southwest 481 554 38,000  Level FlightAware ADS-B (KBOS)
06:05PM 42.9301 -71.2481 209° Southwest 479 551 38,000  Level FlightAware ADS-B (KBOS)
06:06PM 42.8730 -71.2907 209° Southwest 478 550 38,000  Level FlightAware ADS-B (KBOS)
06:06PM 42.8111 -71.3368 209° Southwest 478 550 38,000  Level FlightAware ADS-B (KBOS)
06:07PM 42.7553 -71.3784 209° Southwest 477 549 38,000  Level FlightAware ADS-B
06:07PM 42.6894 -71.4274 209° Southwest 476 548 38,000  Level FlightAware ADS-B
06:08PM 42.6281 -71.4726 209° Southwest 473 544 38,000  Level FlightAware ADS-B
06:09PM 42.5671 -71.5175 209° Southwest 473 544 38,000  Level FlightAware ADS-B (KASH)
06:09PM 42.5065 -71.5621 209° Southwest 473 544 38,000  Level FlightAware ADS-B (KASH)
06:10PM 42.4462 -71.6063 209° Southwest 473 544 38,000  Level FlightAware ADS-B (KASH)
06:10PM 42.3880 -71.6490 209° Southwest 474 545 38,000  Level FlightAware ADS-B (KASH)
06:11PM 42.3311 -71.6905 208° Southwest 477 549 38,000  Level FlightAware ADS-B
06:11PM 42.2695 -71.7355 208° Southwest 477 549 38,000  Level FlightAware ADS-B (KSNC)
06:12PM 42.2025 -71.7843 208° Southwest 477 549 38,000  Level FlightAware ADS-B (KSNC)
06:12PM 42.1261 -71.8397 208° Southwest 476 548 38,000  Level FlightAware ADS-B (KASH)
06:13PM 42.0653 -71.8837 208° Southwest 476 548 38,000  Level FlightAware ADS-B (KSNC)
06:13PM 42.0054 -71.9270 208° Southwest 476 548 38,000  Level FlightAware ADS-B
06:14PM 41.9287 -71.9823 208° Southwest 475 547 38,000  Level FlightAware ADS-B (KSNC)
06:15PM 41.8678 -72.0261 208° Southwest 474 545 38,000  Level FlightAware ADS-B (KSNC)
06:15PM 41.7908 -72.0814 208° Southwest 472 543 38,000  Level FlightAware ADS-B (KSNC)
06:16PM 41.7109 -72.1385 208° Southwest 471 542 38,000  Level FlightAware ADS-B (KSNC)
06:16PM 41.6511 -72.1812 208° Southwest 471 542 38,000  Level FlightAware ADS-B (KSNC)
06:17PM 41.5991 -72.2182 208° Southwest 471 542 38,000  Level FlightAware ADS-B (KSNC)
06:17PM 41.5389 -72.2610 208° Southwest 471 542 38,000  Level FlightAware ADS-B
06:18PM 41.4766 -72.3051 208° Southwest 472 543 38,000  Level FlightAware ADS-B (KSNC)
06:18PM 41.4223 -72.3537 217° Southwest 462 532 38,000  Level FlightAware ADS-B (KSNC)
06:19PM 41.3647 -72.4105 217° Southwest 464 534 38,000  Level FlightAware ADS-B (KSNC)
06:20PM 41.3142 -72.4599 216° Southwest 465 535 38,000  Level FlightAware ADS-B (KSNC)
06:20PM 41.2579 -72.5149 216° Southwest 467 537 38,000  Level FlightAware ADS-B (KSNC)
06:21PM 41.1973 -72.5740 216° Southwest 467 537 38,000  Level FlightAware ADS-B (KSNC)
06:21PM 41.1533 -72.6168 217° Southwest 464 534 38,000  Level FlightAware ADS-B
06:22PM 41.0713 -72.6969 216° Southwest 463 533 38,000  Level FlightAware ADS-B (KSNC)
06:23PM 41.0114 -72.7548 216° Southwest 461 531 38,000  Level FlightAware ADS-B (KSNC)
06:23PM 40.9395 -72.8243 216° Southwest 458 527 38,000  Level FlightAware ADS-B
06:24PM 40.8776 -72.8840 216° Southwest 456 525 38,000  Level FlightAware ADS-B (KSNC)
06:24PM 40.8236 -72.9360 216° Southwest 455 524 38,000  Level FlightAware ADS-B (KSNC)
06:25PM 40.7683 -72.9889 216° Southwest 451 519 38,000  Level FlightAware ADS-B (KSNC)
06:25PM 40.7032 -73.0513 216° Southwest 452 520 38,000  Level FlightAware ADS-B (KSNC)
06:26PM 40.6482 -73.1039 216° Southwest 450 518 38,000  Level FlightAware ADS-B (KSNC)
06:27PM 40.5806 -73.1684 216° Southwest 452 520 38,000  Level FlightAware ADS-B (KSNC)
06:27PM 40.5292 -73.2173 216° Southwest 455 524 38,000  Level FlightAware ADS-B (KSNC)
06:28PM 40.4612 -73.2819 216° Southwest 461 531 38,000  Level FlightAware ADS-B (KSNC)
06:28PM 40.4068 -73.3334 216° Southwest 464 534 38,000  Level FlightAware ADS-B (KSNC)
06:29PM 40.3362 -73.4001 216° Southwest 461 531 38,000  Level FlightAware ADS-B (KSNC)
06:30PM 40.2817 -73.4514 216° Southwest 457 526 38,000  Level FlightAware ADS-B (KSNC)
06:30PM 40.2243 -73.5055 216° Southwest 454 522 38,000  Level FlightAware ADS-B (KSNC)
06:31PM 40.1758 -73.5510 216° Southwest 451 519 38,000  Level FlightAware ADS-B (KSNC)
06:31PM 40.1208 -73.6025 216° Southwest 447 514 38,000  Level FlightAware ADS-B (KPHL)
06:32PM 40.0640 -73.6556 216° Southwest 446 513 38,000  Level FlightAware ADS-B (KPHL)
06:32PM 40.0008 -73.7146 216° Southwest 445 512 38,000  Level FlightAware ADS-B (KSNC)
06:33PM 39.9401 -73.7711 216° Southwest 447 514 38,000  Level FlightAware ADS-B (KPHL)
06:33PM 39.8905 -73.8171 216° Southwest 447 514 38,000  Level FlightAware ADS-B (KPHL)
06:34PM 39.8378 -73.8660 216° Southwest 448 516 38,000  Level FlightAware ADS-B (KPHL)
06:35PM 39.7383 -73.9579 215° Southwest 449 517 38,000  Level FlightAware ADS-B (KPHL)
06:35PM 39.6854 -74.0067 216° Southwest 448 516 38,000  Level FlightAware ADS-B (KPHL)
06:36PM 39.6144 -74.0667 210° Southwest 454 522 38,000  Level FlightAware ADS-B (KPHL)
06:37PM 39.5590 -74.1085 211° Southwest 454 522 38,000  Level FlightAware ADS-B (KPHL)
06:37PM 39.5005 -74.1535 211° Southwest 454 522 38,000  Level FlightAware ADS-B (KPHL)
06:38PM 39.4633 -74.1825 211° Southwest 455 524 38,000  Level FlightAware ADS-B (KPHL)
06:40PM 39.2322 -74.3626 211° Southwest 451 519 38,000  Level FlightAware ADS-B (KPHL)
06:42PM 39.0565 -74.4986 211° Southwest 459 528 38,000  Level FlightAware ADS-B (KSBY)
06:45PM 39.1842 -74.4000 211° Southwest 460 529 38,000  Level FlightAware ADS-B
06:46PM 38.5733 -74.8719 211° Southwest 466 536 38,000  Level Washington Center
06:51PM 38.0140 -75.2897 211° Southwest 465 535 38,000  Level FlightAware ADS-B (KSBY)
06:52PM 37.9303 -75.3520 211° Southwest 464 534 38,000  Level FlightAware ADS-B (KSBY)
06:52PM 37.8385 -75.4201 210° Southwest 465 535 38,000  Level FlightAware ADS-B (KSBY)
06:53PM 37.8014 -75.4476 210° Southwest 465 535 38,000  Level FlightAware ADS-B (KSBY)
06:53PM 37.7342 -75.4973 210° Southwest 464 534 38,000  Level FlightAware ADS-B (KSBY)
06:54PM 37.6795 -75.5379 210° Southwest 463 533 38,000  Level FlightAware ADS-B (KSBY)
06:54PM 37.6456 -75.5628 210° Southwest 462 532 38,000  Level FlightAware ADS-B (KSBY)
06:54PM 37.6314 -75.5732 210° Southwest 461 531 38,000  Level FlightAware ADS-B (KSBY)
06:55PM 37.5734 -75.6159 211° Southwest 458 527 38,000  Level FlightAware ADS-B (KDCA)
06:55PM 37.5672 -75.6205 210° Southwest 459 528 38,000  Level FlightAware ADS-B (KSBY)
06:55PM 37.4973 -75.6719 211° Southwest 458 527 38,000  Level FlightAware ADS-B (KDCA)
06:56PM 37.4252 -75.7248 211° Southwest 457 526 38,000  Level FlightAware ADS-B (KDCA)
06:57PM 37.3173 -75.8037 211° Southwest 457 526 38,000  Level FlightAware ADS-B (KDCA)
06:58PM 37.2448 -75.8566 211° Southwest 457 526 38,000  Level FlightAware ADS-B (KDCA)
06:59PM 37.0572 -75.9926 211° Southwest 456 525 38,000  Level FlightAware ADS-B (KDCA)
07:00PM 36.9914 -76.0402 211° Southwest 455 524 38,000  Level FlightAware ADS-B (KDCA)
07:01PM 36.9126 -76.0970 211° Southwest 456 525 38,000  Level FlightAware ADS-B (KDCA)
07:01PM 36.8475 -76.1440 211° Southwest 458 527 38,000  Level FlightAware ADS-B (KDCA)
07:02PM 36.7291 -76.2290 210° Southwest 458 527 38,000  Level FlightAware ADS-B (KDCA)
07:03PM 36.6554 -76.2818 210° Southwest 458 527 38,000  Level FlightAware ADS-B (KDCA)
07:04PM 36.5468 -76.3592 210° Southwest 460 529 38,000  Level FlightAware ADS-B (KDCA)
07:05PM 36.4740 -76.4111 210° Southwest 460 529 38,000  Level FlightAware ADS-B (KDCA)
07:06PM 36.3652 -76.4883 210° Southwest 460 529 38,000  Level FlightAware ADS-B (KDCA)
07:07PM 36.2595 -76.5631 210° Southwest 459 528 38,000  Level FlightAware ADS-B (KDCA)
07:08PM 36.1600 -76.6339 210° Southwest 466 536 38,000  Level Washington Center
07:09PM 36.0486 -76.7094 209° Southwest 466 536 38,000  Level Washington Center
07:10PM 35.9394 -76.7875 210° Southwest 466 536 38,000  Level Washington Center
07:11PM 35.8258 -76.8653 209° Southwest 466 536 38,000  Level Washington Center
07:12PM 35.7167 -76.9428 210° Southwest 466 536 38,000  Level Washington Center
07:13PM 35.5944 -77.0275 209° Southwest 466 536 38,000  Level Washington Center
07:14PM 35.4831 -77.1047 209° Southwest 466 536 38,000  Level Washington Center
07:15PM 35.3672 -77.1839 209° Southwest 466 536 38,000  Level Washington Center
07:16PM 35.2556 -77.2606 209° Southwest 466 536 38,000  Level Washington Center
07:17PM 35.1417 -77.3394 210° Southwest 466 536 38,000  Level Washington Center
07:18PM 35.0281 -77.4158 209° Southwest 466 536 38,000  Level Washington Center
07:19PM 34.9161 -77.4917 209° Southwest 466 536 38,000  Level Washington Center
07:20PM 34.8069 -77.5422 201° Southwest 466 536 38,000  Level Washington Center
07:21PM 34.6811 -77.5847 196° South 471 542 38,000  Level Washington Center
07:22PM 34.5531 -77.6322 197° South 477 549 38,000  Level Washington Center
07:23PM 34.4250 -77.6742 195° South 477 549 38,000  Level Washington Center
07:24PM 34.2969 -77.7189 196° South 477 549 38,000  Level Washington Center
07:27PM 33.8758 -77.8600 196° South 480 552 38,000  Level Jacksonville Center
07:28PM 33.7506 -77.9072 197° South 475 547 38,000  Level Jacksonville Center
07:29PM 33.6247 -77.9467 195° South 470 541 38,000  Level Jacksonville Center
07:30PM 33.4992 -77.9886 196° South 470 541 38,000  Level Jacksonville Center
07:31PM 33.3692 -78.0306 195° South 470 541 38,000  Level Jacksonville Center
07:32PM 33.2436 -78.0747 196° South 470 541 38,000  Level Jacksonville Center
07:33PM 33.1158 -78.1164 195° South 470 541 38,000  Level Jacksonville Center
07:34PM 32.9903 -78.1600 196° South 470 541 38,000  Level Jacksonville Center
07:35PM 32.8622 -78.2014 195° South 470 541 38,000  Level Jacksonville Center
07:36PM 32.7344 -78.2428 195° South 470 541 38,000  Level Jacksonville Center
07:37PM 32.6108 -78.2861 196° South 470 541 38,000  Level Jacksonville Center
07:38PM 32.4850 -78.3244 194° South 470 541 38,000  Level Jacksonville Center
07:39PM 32.3569 -78.3653 195° South 470 541 38,000  Level Jacksonville Center
07:40PM 32.2314 -78.4133 198° South 470 541 38,000  Level Jacksonville Center
07:41PM 32.1056 -78.4536 195° South 470 541 38,000  Level Jacksonville Center
07:42PM 31.9714 -78.4969 195° South 470 541 38,000  Level Jacksonville Center
07:43PM 31.8414 -78.5422 196° South 470 541 38,000  Level Jacksonville Center
07:44PM 31.7133 -78.5825 195° South 476 548 38,000  Level Jacksonville Center
07:45PM 31.5894 -78.6222 195° South 471 542 38,000  Level Jacksonville Center
07:46PM 31.4633 -78.6622 195° South 471 542 38,000  Level Jacksonville Center
07:47PM 31.3333 -78.7069 196° South 471 542 38,000  Level Jacksonville Center
07:48PM 31.2072 -78.7442 194° South 471 542 38,000  Level Jacksonville Center
07:49PM 31.0811 -78.7836 195° South 471 542 38,000  Level Jacksonville Center
07:50PM 30.9575 -78.8303 198° South 471 542 38,000  Level Jacksonville Center
07:51PM 30.8292 -78.8694 195° South 476 548 38,000  Level Jacksonville Center
07:53PM 30.5567 -78.9556 195° South 463 533 38,000  Level Miami Center
07:54PM 30.4353 -78.9942 195° South 469 540 38,000  Level Miami Center
07:55PM 30.3114 -79.0469 200° South 469 540 38,000  Level Miami Center
07:56PM 30.1878 -79.0994 200° South 469 540 38,000  Level Miami Center
07:57PM 30.0658 -79.1519 200° South 469 540 38,000  Level Miami Center
07:58PM 29.9586 -79.2097 205° Southwest 481 554 38,000  Level Miami Center
07:59PM 29.8350 -79.2572 198° South 476 548 38,000  Level Miami Center
08:00PM 29.7111 -79.3069 199° South 471 542 38,000  Level Miami Center
08:01PM 29.5933 -79.3592 201° Southwest 471 542 38,000  Level Miami Center
08:02PM 29.4672 -79.4064 198° South 466 536 38,000  Level Miami Center
08:07PM 28.8087 -79.6715 198° South 470 541 38,000  Level FlightAware ADS-B (KMCO)
08:08PM 28.7278 -79.7007 198° South 468 539 38,000  Level FlightAware ADS-B (KMCO)
08:09PM 28.6007 -79.7465 198° South 466 536 38,000  Level FlightAware ADS-B (KMCO)
08:10PM 28.5099 -79.7789 198° South 465 535 38,000  Level FlightAware ADS-B (KMCO)
08:11PM 28.4276 -79.8085 198° South 465 535 38,000  Level FlightAware ADS-B (KMCO)
08:12PM 28.3071 -79.8519 198° South 467 537 38,000  Level FlightAware ADS-B (KMCO)
08:12PM 28.2217 -79.8823 197° South 468 539 38,000  Level FlightAware ADS-B (KMCO)
08:13PM 28.0980 -79.9264 198° South 467 537 38,000  Level FlightAware ADS-B (KMCO)
08:14PM 27.9734 -79.9707 198° South 463 533 38,000  Level FlightAware ADS-B (KMCO)
08:15PM 27.8573 -80.0119 198° South 454 522 38,000  Level FlightAware ADS-B (KMCO)
08:16PM 27.7719 -80.0421 198° South 453 521 38,000  Level FlightAware ADS-B (KMCO)
08:17PM 27.6969 -80.0687 198° South 452 520 38,000  Level FlightAware ADS-B (KMCO)
08:17PM 27.6160 -80.0974 198° South 450 518 38,000  Level FlightAware ADS-B (KMCO)
08:18PM 27.5350 -80.1259 198° South 449 517 38,000  Level FlightAware ADS-B (KMCO)
08:19PM 27.4566 -80.1535 197° South 446 513 38,000  Level FlightAware ADS-B (KMCO)
08:19PM 27.3756 -80.1818 198° South 443 510 38,000  Level FlightAware ADS-B (KMCO)
08:20PM 27.2996 -80.2085 197° South 443 510 38,000  Level FlightAware ADS-B (KMCO)
08:21PM 27.2214 -80.2360 198° South 443 510 38,000  Level FlightAware ADS-B (KMCO)
08:21PM 27.1300 -80.2680 197° South 444 511 38,000  Level FlightAware ADS-B (RJTF)
08:22PM 27.0722 -80.2881 197° South 444 511 38,000  Level FlightAware ADS-B (RJTF)
08:22PM 27.0081 -80.3105 197° South 444 511 38,000  Level FlightAware ADS-B (RJTF)
08:23PM 26.9206 -80.3411 197° South 444 511 38,000  Level FlightAware ADS-B (RJTF)
08:24PM 26.8605 -80.3620 197° South 445 512 38,000  Level FlightAware ADS-B (RJTF)
08:24PM 26.7865 -80.3877 197° South 445 512 38,000  Level FlightAware ADS-B (KMCO)
08:25PM 26.7202 -80.4108 197° South 445 512 38,000  Level FlightAware ADS-B (RJTF)
08:26PM 26.6313 -80.4416 197° South 447 514 38,000  Level FlightAware ADS-B (KMCO)
08:26PM 26.5662 -80.4641 197° South 448 516 38,000  Level FlightAware ADS-B (RJTF)
08:27PM 26.4764 -80.4952 197° South 448 516 38,000  Level FlightAware ADS-B (RJTF)
08:27PM 26.4155 -80.5162 197° South 448 516 38,000  Level FlightAware ADS-B (RJTF)
08:28PM 26.3329 -80.5446 197° South 445 512 38,000  Level FlightAware ADS-B (RJTF)
08:29PM 26.2345 -80.5785 197° South 443 510 38,000  Level FlightAware ADS-B (KMCO)
08:30PM 26.1534 -80.6065 197° South 441 507 38,000  Level FlightAware ADS-B (RJTF)
08:30PM 26.0989 -80.6252 197° South 443 510 38,000  Level FlightAware ADS-B (RJTF)
08:31PM 25.9681 -80.6719 197° South 445 512 38,000  Level Miami Center
08:32PM 25.8478 -80.7144 198° South 445 512 38,000  Level Miami Center
08:33PM 25.7425 -80.7503 197° South 445 512 38,000  Level Miami Center
08:34PM 25.6528 -80.8233 216° Southwest 412 474 38,000  Level Miami Center
08:35PM 25.5711 -80.9036 222° Southwest 407 468 38,000  Level Miami Center
08:36PM 25.4936 -80.9886 225° Southwest 401 461 38,000  Level Miami Center
08:37PM 25.4142 -81.0686 222° Southwest 390 449 38,000  Level Miami Center
08:38PM 25.3364 -81.1533 225° Southwest 390 449 38,000  Level Miami Center
08:39PM 25.2589 -81.2356 224° Southwest 390 449 38,000  Level Miami Center
08:40PM 25.1792 -81.3153 222° Southwest 385 443 38,000  Level Miami Center
08:41PM 25.0994 -81.3950 222° Southwest 385 443 38,000  Level Miami Center
08:42PM 25.0197 -81.4767 223° Southwest 385 443 38,000  Level Miami Center
08:43PM 24.9397 -81.5608 224° Southwest 385 443 38,000  Level Miami Center
08:44PM 24.8578 -81.6469 224° Southwest 385 443 38,000 -180 Level Miami Center
08:45PM 24.7797 -81.7308 224° Southwest 380 437 37,700 -900 Descending Miami Center
08:46PM 24.6975 -81.8189 224° Southwest 391 450 36,300 -2,100 Descending Miami Center
08:47PM 24.6200 -81.8911 220° Southwest 405 466 33,500 -2,940 Descending Miami Center
08:48PM 24.5314 -81.9719 220° Southwest 410 472 30,500 -3,780 Descending Miami Center
08:49PM 24.4556 -82.0533 224° Southwest 405 466 26,000 -3,180 Descending Miami Center
08:50PM 24.3756 -82.1344 223° Southwest 400 460 24,200 -1,740 Descending Miami Center
08:51PM 24.3039 -82.2133 225° Southwest 387 445 22,600 -1,140 Descending Miami Center
08:52PM 24.2303 -82.2853 222° Southwest 371 427 22,000 -300 Descending Miami Center
08:53PM 24.1586 -82.3572 222° Southwest 358 412 22,000  Level Miami Center
08:54PM 24.0892 -82.4317 224° Southwest 352 405 22,000  Level Miami Center
08:55PM 24.0075 -82.4892 213° Southwest 352 405 22,000  Level Miami Center
08:57PM 23.8658 -82.4975 173° South  Level FlightAware Approximate
09:04PM 22.9839 -82.4000 180° South  Level FlightAware Approximate
09:05PM 22.9891 -82.4091 180° South  Level Estimated
09:06PM 22.9891 -82.4091 180° South  Level Estimated
09:07PM 22.9891 -82.4091 180° South  Level Estimated
09:08PM 22.9891 -82.4091 180° South  Level Estimated
09:09PM 22.9891 -82.4091 180° South  Level Estimated
09:10PM 22.9891 -82.4091 180° South  Level Estimated
09:11PM 22.9891 -82.4091 180° South  Level Estimated
09:12PM 22.9891 -82.4091 180° South  Level Estimated
09:13PM 22.9891 -82.4091 180° South  Level Estimated
09:14PM 22.9891 -82.4091 180° South  Level Estimated
09:15PM 22.9891 -82.4091 180° South  Level Estimated
09:16PM 22.9891 -82.4091 180° South  Level Estimated
09:17PM 22.9891 -82.4091 180° South  Level Estimated
09:18PM 22.9891 -82.4091 180° South  Level Estimated
09:19PM 22.9891 -82.4091 180° South  Level Estimated
09:20PM 22.9891 -82.4091 180° South  Level Estimated
09:21PM 22.9891 -82.4091 180° South  Level Estimated
09:22PM 22.9891 -82.4091 180° South  Level Estimated
09:23PM 22.9891 -82.4091 180° South  Level Estimated
09:24PM 22.9891 -82.4091 180° South  Level Estimated